sensor_id;sensor_type;location;lat;lon;timestamp;temperature;humidity
814;DHT22;389;48.710;9.392;2022-09-03T00:05:22;18.40;75.00
814;DHT22;389;48.710;9.392;2022-09-03T00:13:04;18.50;74.60
814;DHT22;389;48.710;9.392;2022-09-03T00:15:32;18.70;74.70
814;DHT22;389;48.710;9.392;2022-09-03T00:18:13;18.50;74.30
814;DHT22;389;48.710;9.392;2022-09-03T00:20:50;18.60;74.40
814;DHT22;389;48.710;9.392;2022-09-03T00:23:26;18.70;74.40
814;DHT22;389;48.710;9.392;2022-09-03T00:28:27;18.70;74.20
814;DHT22;389;48.710;9.392;2022-09-03T00:31:10;18.70;74.10
814;DHT22;389;48.710;9.392;2022-09-03T00:33:41;18.80;74.10
814;DHT22;389;48.710;9.392;2022-09-03T00:36:27;18.80;74.00
814;DHT22;389;48.710;9.392;2022-09-03T00:38:57;18.80;74.10
814;DHT22;389;48.710;9.392;2022-09-03T00:47:04;18.80;73.80
814;DHT22;389;48.710;9.392;2022-09-03T00:49:51;18.90;73.70
814;DHT22;389;48.710;9.392;2022-09-03T00:52:42;18.90;73.40
814;DHT22;389;48.710;9.392;2022-09-03T00:55:33;19.00;73.50
814;DHT22;389;48.710;9.392;2022-09-03T01:00:57;19.00;73.50
814;DHT22;389;48.710;9.392;2022-09-03T01:06:45;19.10;73.40
814;DHT22;389;48.710;9.392;2022-09-03T01:09:30;19.10;73.50
814;DHT22;389;48.710;9.392;2022-09-03T01:12:21;19.10;73.40
814;DHT22;389;48.710;9.392;2022-09-03T01:14:56;19.10;73.40
814;DHT22;389;48.710;9.392;2022-09-03T01:17:50;19.10;73.50
814;DHT22;389;48.710;9.392;2022-09-03T01:26:01;19.10;73.70
814;DHT22;389;48.710;9.392;2022-09-03T01:28:48;19.10;73.80
814;DHT22;389;48.710;9.392;2022-09-03T01:34:15;19.10;74.00
814;DHT22;389;48.710;9.392;2022-09-03T01:37:36;19.10;74.10
814;DHT22;389;48.710;9.392;2022-09-03T01:40:05;19.10;74.20
814;DHT22;389;48.710;9.392;2022-09-03T01:45:55;19.00;74.10
814;DHT22;389;48.710;9.392;2022-09-03T01:51:22;19.00;74.40
814;DHT22;389;48.710;9.392;2022-09-03T01:54:08;19.00;74.60
814;DHT22;389;48.710;9.392;2022-09-03T01:59:44;19.00;74.80
814;DHT22;389;48.710;9.392;2022-09-03T02:02:16;19.00;74.80
814;DHT22;389;48.710;9.392;2022-09-03T02:05:02;19.10;75.00
814;DHT22;389;48.710;9.392;2022-09-03T02:07:32;19.00;75.20
814;DHT22;389;48.710;9.392;2022-09-03T02:10:00;19.00;75.10
814;DHT22;389;48.710;9.392;2022-09-03T02:12:29;19.00;75.20
814;DHT22;389;48.710;9.392;2022-09-03T02:14:59;19.10;75.90
814;DHT22;389;48.710;9.392;2022-09-03T02:17:25;19.00;75.10
814;DHT22;389;48.710;9.392;2022-09-03T02:19:50;19.10;75.30
814;DHT22;389;48.710;9.392;2022-09-03T02:22:16;18.90;75.20
814;DHT22;389;48.710;9.392;2022-09-03T02:24:42;19.10;75.50
814;DHT22;389;48.710;9.392;2022-09-03T02:27:08;18.90;75.10
814;DHT22;389;48.710;9.392;2022-09-03T02:29:34;18.90;75.10
814;DHT22;389;48.710;9.392;2022-09-03T02:32:00;18.90;75.20
814;DHT22;389;48.710;9.392;2022-09-03T02:34:25;18.90;75.20
814;DHT22;389;48.710;9.392;2022-09-03T02:36:51;18.90;75.30
814;DHT22;389;48.710;9.392;2022-09-03T02:39:16;18.90;75.50
814;DHT22;389;48.710;9.392;2022-09-03T02:41:42;18.90;75.60
814;DHT22;389;48.710;9.392;2022-09-03T02:46:39;18.90;75.90
814;DHT22;389;48.710;9.392;2022-09-03T02:49:05;18.80;75.80
814;DHT22;389;48.710;9.392;2022-09-03T02:51:37;18.80;76.10
814;DHT22;389;48.710;9.392;2022-09-03T02:54:03;18.80;76.30
814;DHT22;389;48.710;9.392;2022-09-03T02:56:29;18.70;76.50
814;DHT22;389;48.710;9.392;2022-09-03T02:58:54;18.60;76.60
814;DHT22;389;48.710;9.392;2022-09-03T03:01:20;18.70;77.00
814;DHT22;389;48.710;9.392;2022-09-03T03:03:46;18.60;77.10
814;DHT22;389;48.710;9.392;2022-09-03T03:06:12;18.60;77.30
814;DHT22;389;48.710;9.392;2022-09-03T03:08:38;18.50;77.40
814;DHT22;389;48.710;9.392;2022-09-03T03:11:04;18.40;77.40
814;DHT22;389;48.710;9.392;2022-09-03T03:13:32;18.40;77.60
814;DHT22;389;48.710;9.392;2022-09-03T03:16:03;18.40;78.00
814;DHT22;389;48.710;9.392;2022-09-03T03:18:30;18.30;78.10
814;DHT22;389;48.710;9.392;2022-09-03T03:20:56;18.20;78.40
814;DHT22;389;48.710;9.392;2022-09-03T03:23:22;18.20;78.60
814;DHT22;389;48.710;9.392;2022-09-03T03:25:48;18.20;79.60
814;DHT22;389;48.710;9.392;2022-09-03T03:28:13;18.20;79.30
814;DHT22;389;48.710;9.392;2022-09-03T03:30:39;18.10;79.30
814;DHT22;389;48.710;9.392;2022-09-03T03:33:07;18.00;79.30
814;DHT22;389;48.710;9.392;2022-09-03T03:35:34;18.00;80.30
814;DHT22;389;48.710;9.392;2022-09-03T03:38:00;17.90;79.70
814;DHT22;389;48.710;9.392;2022-09-03T03:40:26;18.00;80.00
814;DHT22;389;48.710;9.392;2022-09-03T03:42:52;17.90;80.20
814;DHT22;389;48.710;9.392;2022-09-03T03:45:18;17.80;80.40
814;DHT22;389;48.710;9.392;2022-09-03T03:47:44;17.90;80.70
814;DHT22;389;48.710;9.392;2022-09-03T03:50:10;17.80;80.80
814;DHT22;389;48.710;9.392;2022-09-03T03:52:35;17.80;81.10
814;DHT22;389;48.710;9.392;2022-09-03T03:55:01;17.70;81.10
814;DHT22;389;48.710;9.392;2022-09-03T03:57:29;17.60;81.20
814;DHT22;389;48.710;9.392;2022-09-03T03:59:55;17.60;81.20
814;DHT22;389;48.710;9.392;2022-09-03T04:02:21;17.60;81.20
814;DHT22;389;48.710;9.392;2022-09-03T04:04:46;17.60;81.30
814;DHT22;389;48.710;9.392;2022-09-03T04:07:12;17.70;81.50
814;DHT22;389;48.710;9.392;2022-09-03T04:09:37;17.70;81.70
814;DHT22;389;48.710;9.392;2022-09-03T04:12:03;17.70;82.00
814;DHT22;389;48.710;9.392;2022-09-03T04:14:33;17.50;82.10
814;DHT22;389;48.710;9.392;2022-09-03T04:16:59;17.50;82.10
814;DHT22;389;48.710;9.392;2022-09-03T04:19:25;17.60;82.30
814;DHT22;389;48.710;9.392;2022-09-03T04:21:52;17.60;82.30
814;DHT22;389;48.710;9.392;2022-09-03T04:24:18;17.60;82.30
814;DHT22;389;48.710;9.392;2022-09-03T04:26:44;17.60;82.40
814;DHT22;389;48.710;9.392;2022-09-03T04:29:10;17.50;83.10
814;DHT22;389;48.710;9.392;2022-09-03T04:31:37;17.60;82.70
814;DHT22;389;48.710;9.392;2022-09-03T04:34:03;17.60;82.70
814;DHT22;389;48.710;9.392;2022-09-03T04:36:31;17.60;82.50
814;DHT22;389;48.710;9.392;2022-09-03T04:38:59;17.60;82.40
814;DHT22;389;48.710;9.392;2022-09-03T04:41:27;17.60;82.40
814;DHT22;389;48.710;9.392;2022-09-03T04:43:56;17.60;82.50
814;DHT22;389;48.710;9.392;2022-09-03T04:46:24;17.60;82.40
814;DHT22;389;48.710;9.392;2022-09-03T04:48:53;17.70;82.50
814;DHT22;389;48.710;9.392;2022-09-03T04:51:21;17.70;82.50
814;DHT22;389;48.710;9.392;2022-09-03T04:53:53;17.70;82.60
814;DHT22;389;48.710;9.392;2022-09-03T04:56:23;17.70;82.60
814;DHT22;389;48.710;9.392;2022-09-03T04:58:55;17.70;82.50
814;DHT22;389;48.710;9.392;2022-09-03T05:01:27;17.70;82.40
814;DHT22;389;48.710;9.392;2022-09-03T05:04:06;17.80;82.80
814;DHT22;389;48.710;9.392;2022-09-03T05:06:33;17.80;82.80
814;DHT22;389;48.710;9.392;2022-09-03T05:09:22;17.80;82.80
814;DHT22;389;48.710;9.392;2022-09-03T05:12:09;17.90;82.90
814;DHT22;389;48.710;9.392;2022-09-03T05:14:39;17.90;82.80
814;DHT22;389;48.710;9.392;2022-09-03T05:17:05;17.90;82.70
814;DHT22;389;48.710;9.392;2022-09-03T05:19:34;18.00;82.90
814;DHT22;389;48.710;9.392;2022-09-03T05:22:14;18.00;82.90
814;DHT22;389;48.710;9.392;2022-09-03T05:24:50;18.00;82.90
814;DHT22;389;48.710;9.392;2022-09-03T05:27:16;18.00;83.00
814;DHT22;389;48.710;9.392;2022-09-03T05:29:42;18.00;83.00
814;DHT22;389;48.710;9.392;2022-09-03T05:32:13;18.10;83.00
814;DHT22;389;48.710;9.392;2022-09-03T05:34:42;18.00;82.90
814;DHT22;389;48.710;9.392;2022-09-03T05:37:09;18.00;83.10
814;DHT22;389;48.710;9.392;2022-09-03T05:39:43;18.00;83.00
814;DHT22;389;48.710;9.392;2022-09-03T05:47:14;18.20;83.00
814;DHT22;389;48.710;9.392;2022-09-03T05:49:40;18.30;83.10
814;DHT22;389;48.710;9.392;2022-09-03T05:52:06;18.40;83.00
814;DHT22;389;48.710;9.392;2022-09-03T05:54:32;18.40;82.80
814;DHT22;389;48.710;9.392;2022-09-03T05:56:58;18.40;82.70
814;DHT22;389;48.710;9.392;2022-09-03T05:59:23;18.40;82.30
814;DHT22;389;48.710;9.392;2022-09-03T06:01:49;18.50;82.60
814;DHT22;389;48.710;9.392;2022-09-03T06:04:15;18.50;82.40
814;DHT22;389;48.710;9.392;2022-09-03T06:06:43;18.60;82.50
814;DHT22;389;48.710;9.392;2022-09-03T06:09:11;18.70;82.50
814;DHT22;389;48.710;9.392;2022-09-03T06:11:38;18.70;82.20
814;DHT22;389;48.710;9.392;2022-09-03T06:14:06;18.80;82.20
814;DHT22;389;48.710;9.392;2022-09-03T06:16:34;18.80;82.10
814;DHT22;389;48.710;9.392;2022-09-03T06:19:00;18.90;82.30
814;DHT22;389;48.710;9.392;2022-09-03T06:21:26;19.00;82.60
814;DHT22;389;48.710;9.392;2022-09-03T06:23:54;18.90;81.90
814;DHT22;389;48.710;9.392;2022-09-03T06:26:23;19.00;81.80
814;DHT22;389;48.710;9.392;2022-09-03T06:28:49;19.10;81.80
814;DHT22;389;48.710;9.392;2022-09-03T06:31:18;19.20;81.70
814;DHT22;389;48.710;9.392;2022-09-03T06:33:45;19.30;81.60
814;DHT22;389;48.710;9.392;2022-09-03T06:36:13;19.50;81.60
814;DHT22;389;48.710;9.392;2022-09-03T06:38:40;19.40;81.30
814;DHT22;389;48.710;9.392;2022-09-03T06:43:37;19.60;81.40
814;DHT22;389;48.710;9.392;2022-09-03T06:46:11;19.70;81.40
814;DHT22;389;48.710;9.392;2022-09-03T06:48:38;19.70;81.10
814;DHT22;389;48.710;9.392;2022-09-03T06:51:07;19.80;81.00
814;DHT22;389;48.710;9.392;2022-09-03T06:53:38;19.80;81.00
814;DHT22;389;48.710;9.392;2022-09-03T06:56:06;19.90;81.10
814;DHT22;389;48.710;9.392;2022-09-03T06:58:34;20.00;81.30
814;DHT22;389;48.710;9.392;2022-09-03T07:01:22;20.00;81.20
814;DHT22;389;48.710;9.392;2022-09-03T07:03:53;20.20;81.30
814;DHT22;389;48.710;9.392;2022-09-03T07:06:24;20.20;81.50
814;DHT22;389;48.710;9.392;2022-09-03T07:08:51;20.30;81.80
814;DHT22;389;48.710;9.392;2022-09-03T07:11:19;20.50;81.80
814;DHT22;389;48.710;9.392;2022-09-03T07:13:48;20.50;81.20
814;DHT22;389;48.710;9.392;2022-09-03T07:16:19;20.60;81.40
814;DHT22;389;48.710;9.392;2022-09-03T07:18:45;20.60;81.20
814;DHT22;389;48.710;9.392;2022-09-03T07:21:16;20.70;81.30
814;DHT22;389;48.710;9.392;2022-09-03T07:23:43;20.80;81.30
814;DHT22;389;48.710;9.392;2022-09-03T07:26:11;20.90;80.90
814;DHT22;389;48.710;9.392;2022-09-03T07:28:38;20.90;80.80
814;DHT22;389;48.710;9.392;2022-09-03T07:31:13;21.00;80.90
814;DHT22;389;48.710;9.392;2022-09-03T07:33:40;21.10;81.00
814;DHT22;389;48.710;9.392;2022-09-03T07:36:08;21.30;81.10
814;DHT22;389;48.710;9.392;2022-09-03T07:38:34;21.20;81.00
814;DHT22;389;48.710;9.392;2022-09-03T07:41:02;21.30;81.10
814;DHT22;389;48.710;9.392;2022-09-03T07:43:32;21.40;81.10
814;DHT22;389;48.710;9.392;2022-09-03T07:45:58;21.40;81.20
814;DHT22;389;48.710;9.392;2022-09-03T07:48:25;21.50;81.40
814;DHT22;389;48.710;9.392;2022-09-03T07:50:51;21.70;81.70
814;DHT22;389;48.710;9.392;2022-09-03T07:53:17;21.60;80.90
814;DHT22;389;48.710;9.392;2022-09-03T07:55:45;21.70;81.00
814;DHT22;389;48.710;9.392;2022-09-03T07:58:11;21.80;81.20
814;DHT22;389;48.710;9.392;2022-09-03T08:00:38;21.90;80.90
814;DHT22;389;48.710;9.392;2022-09-03T08:03:04;22.00;80.90
814;DHT22;389;48.710;9.392;2022-09-03T08:05:33;22.10;80.70
814;DHT22;389;48.710;9.392;2022-09-03T08:07:59;21.90;80.60
814;DHT22;389;48.710;9.392;2022-09-03T08:10:26;22.00;81.20
814;DHT22;389;48.710;9.392;2022-09-03T08:12:55;22.00;81.30
814;DHT22;389;48.710;9.392;2022-09-03T08:15:20;21.90;81.60
814;DHT22;389;48.710;9.392;2022-09-03T08:17:46;22.00;82.20
814;DHT22;389;48.710;9.392;2022-09-03T08:20:11;22.10;82.30
814;DHT22;389;48.710;9.392;2022-09-03T08:22:37;22.30;82.10
814;DHT22;389;48.710;9.392;2022-09-03T08:25:03;22.50;81.70
814;DHT22;389;48.710;9.392;2022-09-03T08:27:30;22.70;81.30
814;DHT22;389;48.710;9.392;2022-09-03T08:29:55;23.00;81.20
814;DHT22;389;48.710;9.392;2022-09-03T08:32:21;23.20;80.70
814;DHT22;389;48.710;9.392;2022-09-03T08:34:47;23.50;80.00
814;DHT22;389;48.710;9.392;2022-09-03T08:37:12;23.60;79.70
814;DHT22;389;48.710;9.392;2022-09-03T08:39:38;23.80;79.40
814;DHT22;389;48.710;9.392;2022-09-03T08:42:11;24.00;78.90
814;DHT22;389;48.710;9.392;2022-09-03T08:44:45;24.00;78.30
814;DHT22;389;48.710;9.392;2022-09-03T08:47:40;24.10;77.70
814;DHT22;389;48.710;9.392;2022-09-03T08:55:30;24.10;78.00
814;DHT22;389;48.710;9.392;2022-09-03T08:58:15;23.90;78.40
814;DHT22;389;48.710;9.392;2022-09-03T09:01:00;23.90;78.40
814;DHT22;389;48.710;9.392;2022-09-03T09:11:28;24.00;78.20
814;DHT22;389;48.710;9.392;2022-09-03T09:14:03;24.20;77.80
814;DHT22;389;48.710;9.392;2022-09-03T09:16:49;24.50;76.20
814;DHT22;389;48.710;9.392;2022-09-03T09:19:36;24.70;74.90
814;DHT22;389;48.710;9.392;2022-09-03T09:22:30;24.90;74.40
814;DHT22;389;48.710;9.392;2022-09-03T09:25:02;25.30;73.80
814;DHT22;389;48.710;9.392;2022-09-03T09:27:31;25.60;73.30
814;DHT22;389;48.710;9.392;2022-09-03T09:29:58;25.80;73.40
814;DHT22;389;48.710;9.392;2022-09-03T09:32:26;26.00;73.30
814;DHT22;389;48.710;9.392;2022-09-03T09:34:51;26.10;71.70
814;DHT22;389;48.710;9.392;2022-09-03T09:37:19;26.20;71.30
814;DHT22;389;48.710;9.392;2022-09-03T09:39:59;26.40;71.00
814;DHT22;389;48.710;9.392;2022-09-03T09:42:25;26.50;71.20
814;DHT22;389;48.710;9.392;2022-09-03T09:44:52;26.60;70.60
814;DHT22;389;48.710;9.392;2022-09-03T09:47:35;26.70;70.30
814;DHT22;389;48.710;9.392;2022-09-03T09:50:03;26.70;70.20
814;DHT22;389;48.710;9.392;2022-09-03T09:52:39;26.80;70.10
814;DHT22;389;48.710;9.392;2022-09-03T09:55:10;26.80;69.90
814;DHT22;389;48.710;9.392;2022-09-03T09:57:38;26.80;69.80
814;DHT22;389;48.710;9.392;2022-09-03T10:00:06;26.80;69.80
814;DHT22;389;48.710;9.392;2022-09-03T10:02:58;26.80;69.80
814;DHT22;389;48.710;9.392;2022-09-03T10:05:31;26.70;70.50
814;DHT22;389;48.710;9.392;2022-09-03T10:08:04;26.80;71.00
814;DHT22;389;48.710;9.392;2022-09-03T10:10:33;26.70;70.10
814;DHT22;389;48.710;9.392;2022-09-03T10:13:15;26.70;70.10
814;DHT22;389;48.710;9.392;2022-09-03T10:24:02;26.80;69.50
814;DHT22;389;48.710;9.392;2022-09-03T10:26:41;26.90;69.20
814;DHT22;389;48.710;9.392;2022-09-03T10:29:07;27.10;68.80
814;DHT22;389;48.710;9.392;2022-09-03T10:37:18;27.90;68.20
814;DHT22;389;48.710;9.392;2022-09-03T10:40:14;28.00;67.30
814;DHT22;389;48.710;9.392;2022-09-03T10:48:51;28.00;67.10
814;DHT22;389;48.710;9.392;2022-09-03T10:51:28;28.00;67.10
814;DHT22;389;48.710;9.392;2022-09-03T10:54:08;28.00;66.50
814;DHT22;389;48.710;9.392;2022-09-03T11:07:21;28.30;66.80
814;DHT22;389;48.710;9.392;2022-09-03T11:12:36;28.50;66.10
814;DHT22;389;48.710;9.392;2022-09-03T11:15:06;28.50;66.20
814;DHT22;389;48.710;9.392;2022-09-03T11:17:41;28.60;66.20
814;DHT22;389;48.710;9.392;2022-09-03T11:20:24;28.60;66.00
814;DHT22;389;48.710;9.392;2022-09-03T11:22:54;28.60;66.10
814;DHT22;389;48.710;9.392;2022-09-03T11:25:25;28.70;66.00
814;DHT22;389;48.710;9.392;2022-09-03T11:28:01;28.70;65.70
814;DHT22;389;48.710;9.392;2022-09-03T11:31:12;28.70;65.60
814;DHT22;389;48.710;9.392;2022-09-03T11:33:49;28.50;65.30
814;DHT22;389;48.710;9.392;2022-09-03T11:36:37;28.30;66.00
814;DHT22;389;48.710;9.392;2022-09-03T11:39:38;28.20;65.50
814;DHT22;389;48.710;9.392;2022-09-03T11:42:22;28.10;65.60
814;DHT22;389;48.710;9.392;2022-09-03T11:44:50;28.10;66.50
814;DHT22;389;48.710;9.392;2022-09-03T11:47:22;28.00;67.10
814;DHT22;389;48.710;9.392;2022-09-03T11:49:52;27.90;67.10
814;DHT22;389;48.710;9.392;2022-09-03T11:52:30;27.80;67.40
814;DHT22;389;48.710;9.392;2022-09-03T11:55:05;27.70;67.50
814;DHT22;389;48.710;9.392;2022-09-03T11:57:32;27.60;67.60
814;DHT22;389;48.710;9.392;2022-09-03T12:00:15;27.50;68.30
814;DHT22;389;48.710;9.392;2022-09-03T12:02:50;27.30;69.20
814;DHT22;389;48.710;9.392;2022-09-03T12:05:35;27.10;69.70
814;DHT22;389;48.710;9.392;2022-09-03T12:11:42;26.80;71.70
814;DHT22;389;48.710;9.392;2022-09-03T12:17:13;26.40;76.50
814;DHT22;389;48.710;9.392;2022-09-03T12:19:51;26.10;78.70
814;DHT22;389;48.710;9.392;2022-09-03T12:22:19;26.00;79.40
814;DHT22;389;48.710;9.392;2022-09-03T12:24:45;25.80;82.00
814;DHT22;389;48.710;9.392;2022-09-03T12:27:15;25.50;83.90
814;DHT22;389;48.710;9.392;2022-09-03T12:30:02;24.90;82.70
814;DHT22;389;48.710;9.392;2022-09-03T12:32:31;24.20;83.00
814;DHT22;389;48.710;9.392;2022-09-03T12:35:20;23.60;85.50
814;DHT22;389;48.710;9.392;2022-09-03T12:37:46;23.00;88.80
814;DHT22;389;48.710;9.392;2022-09-03T12:40:18;22.50;90.50
814;DHT22;389;48.710;9.392;2022-09-03T12:42:46;22.10;91.10
814;DHT22;389;48.710;9.392;2022-09-03T12:45:12;21.90;91.80
814;DHT22;389;48.710;9.392;2022-09-03T12:47:41;21.50;92.90
814;DHT22;389;48.710;9.392;2022-09-03T12:50:22;21.10;92.80
814;DHT22;389;48.710;9.392;2022-09-03T12:52:51;20.80;93.70
814;DHT22;389;48.710;9.392;2022-09-03T12:58:04;20.40;95.20
814;DHT22;389;48.710;9.392;2022-09-03T13:00:36;20.20;95.70
814;DHT22;389;48.710;9.392;2022-09-03T13:06:12;19.90;96.60
814;DHT22;389;48.710;9.392;2022-09-03T13:08:50;19.80;97.40
814;DHT22;389;48.710;9.392;2022-09-03T13:11:20;19.70;97.80
814;DHT22;389;48.710;9.392;2022-09-03T13:14:03;19.60;98.00
814;DHT22;389;48.710;9.392;2022-09-03T13:25:08;19.40;99.40
814;DHT22;389;48.710;9.392;2022-09-03T13:33:41;19.40;99.40
814;DHT22;389;48.710;9.392;2022-09-03T13:36:16;19.40;99.70
814;DHT22;389;48.710;9.392;2022-09-03T13:39:01;19.50;99.90
814;DHT22;389;48.710;9.392;2022-09-03T13:52:33;20.30;99.90
814;DHT22;389;48.710;9.392;2022-09-03T13:55:06;20.60;99.90
814;DHT22;389;48.710;9.392;2022-09-03T13:57:50;20.90;99.50
814;DHT22;389;48.710;9.392;2022-09-03T14:00:45;21.20;99.20
814;DHT22;389;48.710;9.392;2022-09-03T14:11:45;22.20;96.30
814;DHT22;389;48.710;9.392;2022-09-03T14:25:13;23.00;94.90
814;DHT22;389;48.710;9.392;2022-09-03T14:27:40;23.00;94.40
814;DHT22;389;48.710;9.392;2022-09-03T14:30:17;23.10;94.60
814;DHT22;389;48.710;9.392;2022-09-03T14:38:31;23.10;94.20
814;DHT22;389;48.710;9.392;2022-09-03T14:41:42;23.10;94.70
814;DHT22;389;48.710;9.392;2022-09-03T14:47:28;23.30;94.60
814;DHT22;389;48.710;9.392;2022-09-03T14:56:03;23.60;94.00
814;DHT22;389;48.710;9.392;2022-09-03T14:58:56;23.70;93.50
814;DHT22;389;48.710;9.392;2022-09-03T15:01:32;23.70;93.30
814;DHT22;389;48.710;9.392;2022-09-03T15:09:41;23.50;93.10
814;DHT22;389;48.710;9.392;2022-09-03T15:12:20;23.50;93.20
814;DHT22;389;48.710;9.392;2022-09-03T15:14:56;23.50;93.40
814;DHT22;389;48.710;9.392;2022-09-03T15:26:17;24.00;92.80
814;DHT22;389;48.710;9.392;2022-09-03T15:28:58;24.00;92.10
814;DHT22;389;48.710;9.392;2022-09-03T15:37:22;24.60;91.80
814;DHT22;389;48.710;9.392;2022-09-03T15:40:21;24.60;90.10
814;DHT22;389;48.710;9.392;2022-09-03T15:42:45;24.60;90.10
814;DHT22;389;48.710;9.392;2022-09-03T15:45:36;24.70;90.90
814;DHT22;389;48.710;9.392;2022-09-03T15:53:35;25.00;90.10
814;DHT22;389;48.710;9.392;2022-09-03T15:56:07;25.00;90.20
814;DHT22;389;48.710;9.392;2022-09-03T15:58:50;25.10;90.00
814;DHT22;389;48.710;9.392;2022-09-03T16:01:22;25.00;89.20
814;DHT22;389;48.710;9.392;2022-09-03T16:07:02;25.00;89.20
814;DHT22;389;48.710;9.392;2022-09-03T16:09:53;25.00;89.40
814;DHT22;389;48.710;9.392;2022-09-03T16:12:34;24.90;89.80
814;DHT22;389;48.710;9.392;2022-09-03T16:15:11;24.60;90.00
814;DHT22;389;48.710;9.392;2022-09-03T16:17:48;24.50;90.40
814;DHT22;389;48.710;9.392;2022-09-03T16:22:59;24.20;90.90
814;DHT22;389;48.710;9.392;2022-09-03T16:31:45;23.80;91.00
814;DHT22;389;48.710;9.392;2022-09-03T16:40:18;23.40;91.80
814;DHT22;389;48.710;9.392;2022-09-03T16:48:09;23.20;92.20
814;DHT22;389;48.710;9.392;2022-09-03T16:53:48;23.10;92.50
814;DHT22;389;48.710;9.392;2022-09-03T17:04:30;22.90;94.20
814;DHT22;389;48.710;9.392;2022-09-03T17:15:21;22.80;95.60
814;DHT22;389;48.710;9.392;2022-09-03T17:18:00;22.80;95.90
814;DHT22;389;48.710;9.392;2022-09-03T17:25:57;22.70;96.10
814;DHT22;389;48.710;9.392;2022-09-03T17:45:48;22.70;96.30
814;DHT22;389;48.710;9.392;2022-09-03T17:50:56;22.70;96.60
814;DHT22;389;48.710;9.392;2022-09-03T17:53:31;22.50;96.80
814;DHT22;389;48.710;9.392;2022-09-03T17:56:19;22.40;96.90
814;DHT22;389;48.710;9.392;2022-09-03T17:58:52;22.20;97.10
814;DHT22;389;48.710;9.392;2022-09-03T18:01:23;22.10;97.30
814;DHT22;389;48.710;9.392;2022-09-03T18:04:14;22.00;97.40
814;DHT22;389;48.710;9.392;2022-09-03T18:06:58;21.80;97.40
814;DHT22;389;48.710;9.392;2022-09-03T18:09:39;21.70;97.60
814;DHT22;389;48.710;9.392;2022-09-03T18:12:32;21.50;97.60
814;DHT22;389;48.710;9.392;2022-09-03T18:15:04;21.40;97.80
814;DHT22;389;48.710;9.392;2022-09-03T18:20:18;21.20;98.10
814;DHT22;389;48.710;9.392;2022-09-03T18:23:17;21.10;98.30
814;DHT22;389;48.710;9.392;2022-09-03T18:26:07;20.90;98.40
814;DHT22;389;48.710;9.392;2022-09-03T18:29:07;20.90;98.70
814;DHT22;389;48.710;9.392;2022-09-03T18:31:55;20.70;99.00
814;DHT22;389;48.710;9.392;2022-09-03T18:34:40;20.50;99.10
814;DHT22;389;48.710;9.392;2022-09-03T18:37:26;20.50;99.20
814;DHT22;389;48.710;9.392;2022-09-03T18:40:20;20.40;99.20
814;DHT22;389;48.710;9.392;2022-09-03T18:43:31;20.20;99.20
814;DHT22;389;48.710;9.392;2022-09-03T18:46:32;20.10;99.40
814;DHT22;389;48.710;9.392;2022-09-03T18:49:34;20.00;99.50
814;DHT22;389;48.710;9.392;2022-09-03T18:55:50;19.70;99.80
814;DHT22;389;48.710;9.392;2022-09-03T19:01:46;19.50;99.90
814;DHT22;389;48.710;9.392;2022-09-03T19:04:58;19.50;99.90
814;DHT22;389;48.710;9.392;2022-09-03T19:14:35;19.30;99.90
814;DHT22;389;48.710;9.392;2022-09-03T19:20:29;19.30;99.90
814;DHT22;389;48.710;9.392;2022-09-03T19:23:14;19.10;99.90
814;DHT22;389;48.710;9.392;2022-09-03T19:26:11;19.00;99.90
814;DHT22;389;48.710;9.392;2022-09-03T19:29:04;19.10;99.90
814;DHT22;389;48.710;9.392;2022-09-03T19:32:00;18.90;99.90
814;DHT22;389;48.710;9.392;2022-09-03T19:35:08;18.90;99.90
814;DHT22;389;48.710;9.392;2022-09-03T19:38:11;18.90;99.90
814;DHT22;389;48.710;9.392;2022-09-03T19:41:07;18.90;99.90
814;DHT22;389;48.710;9.392;2022-09-03T19:44:17;18.90;99.90
814;DHT22;389;48.710;9.392;2022-09-03T19:47:39;18.90;99.90
814;DHT22;389;48.710;9.392;2022-09-03T19:50:30;18.80;99.90
814;DHT22;389;48.710;9.392;2022-09-03T19:53:18;18.80;99.90
814;DHT22;389;48.710;9.392;2022-09-03T19:56:08;18.80;99.90
814;DHT22;389;48.710;9.392;2022-09-03T19:58:55;18.70;99.90
814;DHT22;389;48.710;9.392;2022-09-03T20:01:41;18.60;99.90
814;DHT22;389;48.710;9.392;2022-09-03T20:04:36;18.60;99.90
814;DHT22;389;48.710;9.392;2022-09-03T20:07:22;18.50;99.90
814;DHT22;389;48.710;9.392;2022-09-03T20:10:11;18.60;99.90
814;DHT22;389;48.710;9.392;2022-09-03T20:13:06;18.40;99.90
814;DHT22;389;48.710;9.392;2022-09-03T20:18:46;18.20;99.90
814;DHT22;389;48.710;9.392;2022-09-03T20:21:26;18.20;99.90
814;DHT22;389;48.710;9.392;2022-09-03T20:26:40;18.00;99.90
814;DHT22;389;48.710;9.392;2022-09-03T20:35:25;17.80;99.90
814;DHT22;389;48.710;9.392;2022-09-03T20:43:02;17.80;99.90
814;DHT22;389;48.710;9.392;2022-09-03T20:45:45;17.80;99.90
814;DHT22;389;48.710;9.392;2022-09-03T20:48:32;17.70;99.90
814;DHT22;389;48.710;9.392;2022-09-03T20:51:16;17.80;99.90
814;DHT22;389;48.710;9.392;2022-09-03T21:19:08;18.30;99.90
814;DHT22;389;48.710;9.392;2022-09-03T21:21:57;18.20;99.90
814;DHT22;389;48.710;9.392;2022-09-03T21:27:15;18.20;99.90
814;DHT22;389;48.710;9.392;2022-09-03T21:30:04;18.10;99.90
814;DHT22;389;48.710;9.392;2022-09-03T21:38:27;18.00;99.90
814;DHT22;389;48.710;9.392;2022-09-03T21:44:02;18.00;99.90
814;DHT22;389;48.710;9.392;2022-09-03T21:46:31;18.00;99.90
814;DHT22;389;48.710;9.392;2022-09-03T21:49:02;18.00;99.90
814;DHT22;389;48.710;9.392;2022-09-03T21:51:40;18.00;99.90
814;DHT22;389;48.710;9.392;2022-09-03T21:57:18;18.10;99.90
814;DHT22;389;48.710;9.392;2022-09-03T22:00:07;18.10;99.90
814;DHT22;389;48.710;9.392;2022-09-03T22:02:33;18.30;99.90
814;DHT22;389;48.710;9.392;2022-09-03T22:05:01;18.30;99.90
814;DHT22;389;48.710;9.392;2022-09-03T22:07:54;18.30;99.90
814;DHT22;389;48.710;9.392;2022-09-03T22:10:30;18.30;99.90
814;DHT22;389;48.710;9.392;2022-09-03T22:15:48;18.30;99.90
814;DHT22;389;48.710;9.392;2022-09-03T22:18:25;18.40;99.90
814;DHT22;389;48.710;9.392;2022-09-03T22:21:02;18.30;99.90
814;DHT22;389;48.710;9.392;2022-09-03T22:23:52;18.40;99.90
814;DHT22;389;48.710;9.392;2022-09-03T22:29:21;18.30;99.90
814;DHT22;389;48.710;9.392;2022-09-03T22:38:14;18.40;99.90
814;DHT22;389;48.710;9.392;2022-09-03T22:40:47;18.40;99.90
814;DHT22;389;48.710;9.392;2022-09-03T22:46:15;18.40;99.90
814;DHT22;389;48.710;9.392;2022-09-03T22:49:05;18.40;99.90
814;DHT22;389;48.710;9.392;2022-09-03T22:54:50;18.40;99.90
814;DHT22;389;48.710;9.392;2022-09-03T22:57:19;18.40;99.90
814;DHT22;389;48.710;9.392;2022-09-03T23:00:03;18.30;99.90
814;DHT22;389;48.710;9.392;2022-09-03T23:02:30;18.30;99.90
814;DHT22;389;48.710;9.392;2022-09-03T23:07:56;18.30;99.90
814;DHT22;389;48.710;9.392;2022-09-03T23:10:47;18.30;99.90
814;DHT22;389;48.710;9.392;2022-09-03T23:13:27;18.30;99.90
814;DHT22;389;48.710;9.392;2022-09-03T23:16:12;18.30;99.90
814;DHT22;389;48.710;9.392;2022-09-03T23:18:44;18.30;99.90
814;DHT22;389;48.710;9.392;2022-09-03T23:21:29;18.30;99.90
814;DHT22;389;48.710;9.392;2022-09-03T23:24:00;18.20;99.90
814;DHT22;389;48.710;9.392;2022-09-03T23:26:47;18.30;99.90